Fountain Green, UT

4:21 PM MDT on August 20, 2014 (GMT -0600)
Carbon County | Change Station
CLOSE
Current Station
Airport
Location: Price,
Elevation: 5955 ft
Nearby Weather Stations

Elev 5955 ft 39.61 °N, 110.75 °W | Updated 9 minutes ago

Scattered Clouds
Scattered Clouds
74 °F
Feels Like 74 °F
N
4
Wind Variable Wind from Variable

Today
High -- | Low -- °F
--% Chance of Precip.
Yesterday
High -- | Low -- °F
Precip. -- in
6:43 AM 8:15 PM
Waning Crescent, 19% visible
Pressure 30.05 in
Visibility 10.0 miles
Clouds Few 4200 ft
Scattered Clouds 10000 ft
Dew Point 47 °F
Humidity 38%
Rainfall 0.00 in
Snow Depth Not available.
UV 5 out of 12
Pollen 6.10 out of 12
Air Quality Not available.
Flu Activity Not available.
SPECI KPUC 202212Z AUTO VRB03KT 10SM VCTS FEW042 SCT100 23/08 A3005 RMK AO2 LTG DSNT SE T02330083

More Conditions Fewer Conditions

Pressure 30.05 in
Visibility 10.0 miles
Clouds Few 4200 ft
Scattered Clouds 10000 ft
Dew Point 47 °F
Humidity 38%
Rainfall 0.00 in
Snow Depth Not available.
UV 5 out of 12
Pollen 6.10 out of 12
Air Quality Not available.
Flu Activity Not available.
SPECI KPUC 202212Z AUTO VRB03KT 10SM VCTS FEW042 SCT100 23/08 A3005 RMK AO2 LTG DSNT SE T02330083

More Conditions Fewer Conditions

Nowcast | as of 3:15 PM MDT on August 20, 2014

Scattered showers and thunderstorms continue to develop over mainly the mountains of southwest Utah. Strongest storms at 315 PM were over Beaver County and southern Millard County. Storms are moving northeast at about 15-20 mph and may produce strong gusty outflow winds...dangerous lightning and brief heavy rain.

×

10-Day Weather Forecast

Almanac

Astronomy

Aug. 20, 2014 Rise Set
Actual Time 6:43 AM MDT 8:15 PM MDT
Civil Twilight 6:15 AM MDT 8:43 PM MDT
Nautical Twilight 5:41 AM MDT 9:17 PM MDT
Astronomical Twilight 5:05 AM MDT 9:53 PM MDT
Moon 2:27 AM MDT 5:02 PM MDT
Length of Visible Light 14h 28m
Length of Day
13h 31m
Tomorrow will be 2m 22s shorter.
Waning Crescent, 19% of the Moon is Illuminated
Today
Waning Crescent
Aug 25
New
Sep 2
First Quarter
Sep 8
Full
Sep 15
Last Quarter

Today's Extremes

State Highs State Lows

Community

WunderPhotos

Upload Photos

1,745,779 photos uploaded!

Nearby

Snow Depth

Station Depth Elevation
Cascade Mountain 0 in 7768 ft
Gooseberry R.S. 0 in 7920 ft
Box Creek 0 in 9800 ft
Dry Fork 0 in 7160 ft
Rock Creek 0 in 7900 ft

Earthquake Activity

City Distance Mag. Time & Date
No recent earthquake activity has been reported nearby.
Minimum magnitude displayed is 2.5.

Coastal Water Temperatures

Place Temperature
No Stations Reporting

Nearby Weather Stations